sensor_id;sensor_type;location;lat;lon;timestamp;temperature;humidity
2867;DHT22;1441;48.886;8.728;2023-04-15T00:01:57;6.00;87.70
2867;DHT22;1441;48.886;8.728;2023-04-15T00:04:24;5.80;87.90
2867;DHT22;1441;48.886;8.728;2023-04-15T00:06:52;5.70;88.40
2867;DHT22;1441;48.886;8.728;2023-04-15T00:09:19;5.70;88.90
2867;DHT22;1441;48.886;8.728;2023-04-15T00:11:45;5.70;88.30
2867;DHT22;1441;48.886;8.728;2023-04-15T00:14:12;5.60;88.00
2867;DHT22;1441;48.886;8.728;2023-04-15T00:16:37;5.60;88.50
2867;DHT22;1441;48.886;8.728;2023-04-15T00:19:03;5.60;88.70
2867;DHT22;1441;48.886;8.728;2023-04-15T00:21:29;5.70;88.60
2867;DHT22;1441;48.886;8.728;2023-04-15T00:23:55;5.60;89.20
2867;DHT22;1441;48.886;8.728;2023-04-15T00:26:21;5.50;89.10
2867;DHT22;1441;48.886;8.728;2023-04-15T00:28:47;5.50;89.60
2867;DHT22;1441;48.886;8.728;2023-04-15T00:31:12;5.50;88.90
2867;DHT22;1441;48.886;8.728;2023-04-15T00:33:38;5.50;89.60
2867;DHT22;1441;48.886;8.728;2023-04-15T00:36:05;5.50;89.50
2867;DHT22;1441;48.886;8.728;2023-04-15T00:38:31;5.60;88.90
2867;DHT22;1441;48.886;8.728;2023-04-15T00:40:58;5.50;89.60
2867;DHT22;1441;48.886;8.728;2023-04-15T00:43:23;5.40;90.00
2867;DHT22;1441;48.886;8.728;2023-04-15T00:45:51;5.60;90.00
2867;DHT22;1441;48.886;8.728;2023-04-15T00:48:18;5.70;89.30
2867;DHT22;1441;48.886;8.728;2023-04-15T00:50:44;5.80;88.90
2867;DHT22;1441;48.886;8.728;2023-04-15T00:53:09;5.80;88.80
2867;DHT22;1441;48.886;8.728;2023-04-15T00:55:36;5.70;89.00
2867;DHT22;1441;48.886;8.728;2023-04-15T00:58:01;5.70;89.70
2867;DHT22;1441;48.886;8.728;2023-04-15T01:00:27;5.80;89.80
2867;DHT22;1441;48.886;8.728;2023-04-15T01:02:53;5.80;89.10
2867;DHT22;1441;48.886;8.728;2023-04-15T01:05:19;5.70;89.10
2867;DHT22;1441;48.886;8.728;2023-04-15T01:07:45;5.60;89.50
2867;DHT22;1441;48.886;8.728;2023-04-15T01:10:11;5.40;89.80
2867;DHT22;1441;48.886;8.728;2023-04-15T01:12:37;5.30;90.50
2867;DHT22;1441;48.886;8.728;2023-04-15T01:15:04;5.30;91.00
2867;DHT22;1441;48.886;8.728;2023-04-15T01:17:30;5.20;91.10
2867;DHT22;1441;48.886;8.728;2023-04-15T01:19:56;5.20;91.60
2867;DHT22;1441;48.886;8.728;2023-04-15T01:22:26;5.10;91.90
2867;DHT22;1441;48.886;8.728;2023-04-15T01:25:02;5.10;91.90
2867;DHT22;1441;48.886;8.728;2023-04-15T01:27:30;5.00;91.90
2867;DHT22;1441;48.886;8.728;2023-04-15T01:29:56;5.00;92.10
2867;DHT22;1441;48.886;8.728;2023-04-15T01:32:23;5.10;91.90
2867;DHT22;1441;48.886;8.728;2023-04-15T01:34:48;5.10;91.60
2867;DHT22;1441;48.886;8.728;2023-04-15T01:37:14;5.00;91.90
2867;DHT22;1441;48.886;8.728;2023-04-15T01:39:39;5.00;91.70
2867;DHT22;1441;48.886;8.728;2023-04-15T01:42:05;4.90;92.00
2867;DHT22;1441;48.886;8.728;2023-04-15T01:44:31;4.90;92.20
2867;DHT22;1441;48.886;8.728;2023-04-15T01:46:56;5.10;91.90
2867;DHT22;1441;48.886;8.728;2023-04-15T01:49:22;5.00;92.40
2867;DHT22;1441;48.886;8.728;2023-04-15T01:51:48;4.90;92.90
2867;DHT22;1441;48.886;8.728;2023-04-15T01:54:13;4.90;92.80
2867;DHT22;1441;48.886;8.728;2023-04-15T01:56:39;4.80;93.10
2867;DHT22;1441;48.886;8.728;2023-04-15T01:59:04;4.80;94.40
2867;DHT22;1441;48.886;8.728;2023-04-15T02:01:30;4.90;93.60
2867;DHT22;1441;48.886;8.728;2023-04-15T02:03:56;4.90;93.80
2867;DHT22;1441;48.886;8.728;2023-04-15T02:06:22;4.90;93.40
2867;DHT22;1441;48.886;8.728;2023-04-15T02:08:47;4.80;94.00
2867;DHT22;1441;48.886;8.728;2023-04-15T02:11:13;4.80;93.80
2867;DHT22;1441;48.886;8.728;2023-04-15T02:13:39;4.90;92.90
2867;DHT22;1441;48.886;8.728;2023-04-15T02:16:15;4.80;93.40
2867;DHT22;1441;48.886;8.728;2023-04-15T02:18:41;4.80;93.90
2867;DHT22;1441;48.886;8.728;2023-04-15T02:21:07;4.80;93.50
2867;DHT22;1441;48.886;8.728;2023-04-15T02:23:33;4.80;93.40
2867;DHT22;1441;48.886;8.728;2023-04-15T02:25:58;4.80;93.50
2867;DHT22;1441;48.886;8.728;2023-04-15T02:28:24;4.70;93.30
2867;DHT22;1441;48.886;8.728;2023-04-15T02:30:50;4.70;93.30
2867;DHT22;1441;48.886;8.728;2023-04-15T02:33:16;4.80;93.10
2867;DHT22;1441;48.886;8.728;2023-04-15T02:35:42;4.80;93.20
2867;DHT22;1441;48.886;8.728;2023-04-15T02:38:10;4.80;93.40
2867;DHT22;1441;48.886;8.728;2023-04-15T02:40:35;4.70;93.40
2867;DHT22;1441;48.886;8.728;2023-04-15T02:43:01;4.60;94.70
2867;DHT22;1441;48.886;8.728;2023-04-15T02:45:27;4.60;94.80
2867;DHT22;1441;48.886;8.728;2023-04-15T02:47:53;4.50;94.80
2867;DHT22;1441;48.886;8.728;2023-04-15T02:50:19;4.50;95.00
2867;DHT22;1441;48.886;8.728;2023-04-15T02:52:45;4.50;94.30
2867;DHT22;1441;48.886;8.728;2023-04-15T02:55:11;4.40;94.50
2867;DHT22;1441;48.886;8.728;2023-04-15T02:57:37;4.40;94.30
2867;DHT22;1441;48.886;8.728;2023-04-15T03:00:04;4.50;94.20
2867;DHT22;1441;48.886;8.728;2023-04-15T03:02:34;4.50;94.10
2867;DHT22;1441;48.886;8.728;2023-04-15T03:05:00;4.40;94.30
2867;DHT22;1441;48.886;8.728;2023-04-15T03:07:25;4.40;94.30
2867;DHT22;1441;48.886;8.728;2023-04-15T03:09:51;4.30;94.50
2867;DHT22;1441;48.886;8.728;2023-04-15T03:12:16;4.20;95.20
2867;DHT22;1441;48.886;8.728;2023-04-15T03:14:42;4.20;96.10
2867;DHT22;1441;48.886;8.728;2023-04-15T03:17:08;4.20;96.10
2867;DHT22;1441;48.886;8.728;2023-04-15T03:19:33;4.10;95.90
2867;DHT22;1441;48.886;8.728;2023-04-15T03:21:59;4.20;95.60
2867;DHT22;1441;48.886;8.728;2023-04-15T03:24:25;4.20;95.40
2867;DHT22;1441;48.886;8.728;2023-04-15T03:26:51;4.30;95.80
2867;DHT22;1441;48.886;8.728;2023-04-15T03:29:17;4.20;95.70
2867;DHT22;1441;48.886;8.728;2023-04-15T03:31:42;4.10;96.30
2867;DHT22;1441;48.886;8.728;2023-04-15T03:34:08;4.00;96.50
2867;DHT22;1441;48.886;8.728;2023-04-15T03:36:33;4.00;97.10
2867;DHT22;1441;48.886;8.728;2023-04-15T03:38:59;3.90;96.30
2867;DHT22;1441;48.886;8.728;2023-04-15T03:41:26;3.90;96.40
2867;DHT22;1441;48.886;8.728;2023-04-15T03:43:52;4.00;96.10
2867;DHT22;1441;48.886;8.728;2023-04-15T03:46:18;4.00;96.60
2867;DHT22;1441;48.886;8.728;2023-04-15T03:48:43;4.00;96.70
2867;DHT22;1441;48.886;8.728;2023-04-15T03:51:09;3.90;96.20
2867;DHT22;1441;48.886;8.728;2023-04-15T03:53:35;3.90;96.10
2867;DHT22;1441;48.886;8.728;2023-04-15T03:56:01;3.90;96.10
2867;DHT22;1441;48.886;8.728;2023-04-15T03:58:26;3.90;96.30
2867;DHT22;1441;48.886;8.728;2023-04-15T04:00:52;4.00;96.10
2867;DHT22;1441;48.886;8.728;2023-04-15T04:03:19;4.30;96.30
2867;DHT22;1441;48.886;8.728;2023-04-15T04:05:44;4.40;95.30
2867;DHT22;1441;48.886;8.728;2023-04-15T04:08:10;4.30;95.50
2867;DHT22;1441;48.886;8.728;2023-04-15T04:10:38;4.00;96.10
2867;DHT22;1441;48.886;8.728;2023-04-15T04:13:04;3.90;96.70
2867;DHT22;1441;48.886;8.728;2023-04-15T04:15:29;3.90;96.60
2867;DHT22;1441;48.886;8.728;2023-04-15T04:17:55;3.80;97.00
2867;DHT22;1441;48.886;8.728;2023-04-15T04:20:21;4.00;97.20
2867;DHT22;1441;48.886;8.728;2023-04-15T04:22:46;4.20;96.80
2867;DHT22;1441;48.886;8.728;2023-04-15T04:25:12;4.20;96.40
2867;DHT22;1441;48.886;8.728;2023-04-15T04:27:38;4.10;96.50
2867;DHT22;1441;48.886;8.728;2023-04-15T04:30:04;3.90;97.30
2867;DHT22;1441;48.886;8.728;2023-04-15T04:32:31;3.90;97.10
2867;DHT22;1441;48.886;8.728;2023-04-15T04:34:56;3.80;96.90
2867;DHT22;1441;48.886;8.728;2023-04-15T04:37:22;3.80;97.10
2867;DHT22;1441;48.886;8.728;2023-04-15T04:39:49;3.80;97.40
2867;DHT22;1441;48.886;8.728;2023-04-15T04:42:14;3.80;97.40
2867;DHT22;1441;48.886;8.728;2023-04-15T04:44:40;3.80;97.40
2867;DHT22;1441;48.886;8.728;2023-04-15T04:47:05;3.80;97.40
2867;DHT22;1441;48.886;8.728;2023-04-15T04:49:32;3.80;97.40
2867;DHT22;1441;48.886;8.728;2023-04-15T04:51:58;3.80;97.50
2867;DHT22;1441;48.886;8.728;2023-04-15T04:54:23;4.00;97.50
2867;DHT22;1441;48.886;8.728;2023-04-15T04:56:49;3.90;96.80
2867;DHT22;1441;48.886;8.728;2023-04-15T04:59:14;3.80;96.80
2867;DHT22;1441;48.886;8.728;2023-04-15T05:01:40;3.80;96.80
2867;DHT22;1441;48.886;8.728;2023-04-15T05:04:06;3.80;97.40
2867;DHT22;1441;48.886;8.728;2023-04-15T05:06:32;3.80;97.70
2867;DHT22;1441;48.886;8.728;2023-04-15T05:08:58;3.80;97.40
2867;DHT22;1441;48.886;8.728;2023-04-15T05:11:23;3.80;96.80
2867;DHT22;1441;48.886;8.728;2023-04-15T05:13:49;3.80;97.60
2867;DHT22;1441;48.886;8.728;2023-04-15T05:16:14;3.80;97.60
2867;DHT22;1441;48.886;8.728;2023-04-15T05:18:41;3.80;97.10
2867;DHT22;1441;48.886;8.728;2023-04-15T05:21:06;3.90;97.10
2867;DHT22;1441;48.886;8.728;2023-04-15T05:23:32;4.00;96.70
2867;DHT22;1441;48.886;8.728;2023-04-15T05:25:57;4.10;95.70
2867;DHT22;1441;48.886;8.728;2023-04-15T05:28:23;4.20;95.50
2867;DHT22;1441;48.886;8.728;2023-04-15T05:30:49;4.20;95.00
2867;DHT22;1441;48.886;8.728;2023-04-15T05:33:14;4.10;95.60
2867;DHT22;1441;48.886;8.728;2023-04-15T05:35:40;4.10;95.60
2867;DHT22;1441;48.886;8.728;2023-04-15T05:38:06;4.00;95.70
2867;DHT22;1441;48.886;8.728;2023-04-15T05:40:31;4.00;96.40
2867;DHT22;1441;48.886;8.728;2023-04-15T05:42:57;4.20;95.90
2867;DHT22;1441;48.886;8.728;2023-04-15T05:45:22;4.60;94.60
2867;DHT22;1441;48.886;8.728;2023-04-15T05:47:48;4.90;94.00
2867;DHT22;1441;48.886;8.728;2023-04-15T05:50:18;5.30;92.60
2867;DHT22;1441;48.886;8.728;2023-04-15T05:52:44;5.50;90.90
2867;DHT22;1441;48.886;8.728;2023-04-15T05:55:10;5.60;90.60
2867;DHT22;1441;48.886;8.728;2023-04-15T05:57:37;5.70;90.30
2867;DHT22;1441;48.886;8.728;2023-04-15T06:00:03;5.80;90.70
2867;DHT22;1441;48.886;8.728;2023-04-15T06:02:29;5.70;90.80
2867;DHT22;1441;48.886;8.728;2023-04-15T06:04:56;5.40;92.50
2867;DHT22;1441;48.886;8.728;2023-04-15T06:07:25;5.70;92.10
2867;DHT22;1441;48.886;8.728;2023-04-15T06:09:50;5.80;91.20
2867;DHT22;1441;48.886;8.728;2023-04-15T06:12:16;5.70;91.90
2867;DHT22;1441;48.886;8.728;2023-04-15T06:14:41;5.70;92.60
2867;DHT22;1441;48.886;8.728;2023-04-15T06:17:07;5.90;92.70
2867;DHT22;1441;48.886;8.728;2023-04-15T06:19:33;6.00;92.70
2867;DHT22;1441;48.886;8.728;2023-04-15T06:21:59;6.50;91.60
2867;DHT22;1441;48.886;8.728;2023-04-15T06:24:25;7.60;88.30
2867;DHT22;1441;48.886;8.728;2023-04-15T06:26:51;9.00;83.80
2867;DHT22;1441;48.886;8.728;2023-04-15T06:29:16;10.00;80.50
2867;DHT22;1441;48.886;8.728;2023-04-15T06:31:42;11.20;76.90
2867;DHT22;1441;48.886;8.728;2023-04-15T06:34:08;11.60;74.90
2867;DHT22;1441;48.886;8.728;2023-04-15T06:36:33;11.10;75.90
2867;DHT22;1441;48.886;8.728;2023-04-15T06:38:59;11.40;75.90
2867;DHT22;1441;48.886;8.728;2023-04-15T06:41:25;12.70;72.40
2867;DHT22;1441;48.886;8.728;2023-04-15T06:43:51;14.00;69.10
2867;DHT22;1441;48.886;8.728;2023-04-15T06:46:16;14.50;67.40
2867;DHT22;1441;48.886;8.728;2023-04-15T06:48:42;14.10;67.90
2867;DHT22;1441;48.886;8.728;2023-04-15T06:51:08;14.30;68.10
2867;DHT22;1441;48.886;8.728;2023-04-15T06:53:34;14.90;67.00
2867;DHT22;1441;48.886;8.728;2023-04-15T06:56:06;15.10;66.10
2867;DHT22;1441;48.886;8.728;2023-04-15T06:58:32;15.00;66.50
2867;DHT22;1441;48.886;8.728;2023-04-15T07:00:57;14.60;67.10
2867;DHT22;1441;48.886;8.728;2023-04-15T07:03:23;14.40;67.60
2867;DHT22;1441;48.886;8.728;2023-04-15T07:05:48;14.10;68.70
2867;DHT22;1441;48.886;8.728;2023-04-15T07:08:14;13.90;69.60
2867;DHT22;1441;48.886;8.728;2023-04-15T07:10:40;14.20;68.80
2867;DHT22;1441;48.886;8.728;2023-04-15T07:13:05;14.70;67.30
2867;DHT22;1441;48.886;8.728;2023-04-15T07:15:33;15.60;65.80
2867;DHT22;1441;48.886;8.728;2023-04-15T07:17:58;16.10;64.60
2867;DHT22;1441;48.886;8.728;2023-04-15T07:20:24;16.80;63.00
2867;DHT22;1441;48.886;8.728;2023-04-15T07:22:50;17.70;60.50
2867;DHT22;1441;48.886;8.728;2023-04-15T07:25:15;18.10;57.90
2867;DHT22;1441;48.886;8.728;2023-04-15T07:27:42;18.50;57.20
2867;DHT22;1441;48.886;8.728;2023-04-15T07:30:08;18.60;57.20
2867;DHT22;1441;48.886;8.728;2023-04-15T07:32:34;17.90;58.90
2867;DHT22;1441;48.886;8.728;2023-04-15T07:34:59;17.50;60.10
2867;DHT22;1441;48.886;8.728;2023-04-15T07:37:26;16.70;62.30
2867;DHT22;1441;48.886;8.728;2023-04-15T07:39:52;16.80;61.40
2867;DHT22;1441;48.886;8.728;2023-04-15T07:42:18;17.00;60.40
2867;DHT22;1441;48.886;8.728;2023-04-15T07:44:44;16.90;60.00
2867;DHT22;1441;48.886;8.728;2023-04-15T07:47:09;16.60;60.10
2867;DHT22;1441;48.886;8.728;2023-04-15T07:49:36;16.60;60.20
2867;DHT22;1441;48.886;8.728;2023-04-15T07:52:02;16.60;61.10
2867;DHT22;1441;48.886;8.728;2023-04-15T07:54:28;16.60;61.70
2867;DHT22;1441;48.886;8.728;2023-04-15T07:56:53;16.70;61.80
2867;DHT22;1441;48.886;8.728;2023-04-15T07:59:19;17.00;59.30
2867;DHT22;1441;48.886;8.728;2023-04-15T08:01:45;17.20;57.90
2867;DHT22;1441;48.886;8.728;2023-04-15T08:04:10;18.00;56.80
2867;DHT22;1441;48.886;8.728;2023-04-15T08:06:36;19.10;54.60
2867;DHT22;1441;48.886;8.728;2023-04-15T08:09:04;19.30;54.10
2867;DHT22;1441;48.886;8.728;2023-04-15T08:11:30;19.70;54.00
2867;DHT22;1441;48.886;8.728;2023-04-15T08:13:56;20.10;52.60
2867;DHT22;1441;48.886;8.728;2023-04-15T08:16:25;20.20;52.20
2867;DHT22;1441;48.886;8.728;2023-04-15T08:18:53;19.30;54.10
2867;DHT22;1441;48.886;8.728;2023-04-15T08:21:19;18.20;56.00
2867;DHT22;1441;48.886;8.728;2023-04-15T08:23:47;17.80;57.40
2867;DHT22;1441;48.886;8.728;2023-04-15T08:26:13;18.20;56.50
2867;DHT22;1441;48.886;8.728;2023-04-15T08:28:40;18.00;57.00
2867;DHT22;1441;48.886;8.728;2023-04-15T08:31:06;18.00;56.90
2867;DHT22;1441;48.886;8.728;2023-04-15T08:33:32;18.40;56.40
2867;DHT22;1441;48.886;8.728;2023-04-15T08:35:58;18.50;56.40
2867;DHT22;1441;48.886;8.728;2023-04-15T08:38:24;18.00;57.80
2867;DHT22;1441;48.886;8.728;2023-04-15T08:40:49;17.70;58.10
2867;DHT22;1441;48.886;8.728;2023-04-15T08:43:31;17.40;59.30
2867;DHT22;1441;48.886;8.728;2023-04-15T08:45:58;16.90;61.00
2867;DHT22;1441;48.886;8.728;2023-04-15T08:48:28;16.50;61.90
2867;DHT22;1441;48.886;8.728;2023-04-15T08:50:54;16.30;62.70
2867;DHT22;1441;48.886;8.728;2023-04-15T08:53:19;16.50;62.70
2867;DHT22;1441;48.886;8.728;2023-04-15T08:55:49;16.80;61.70
2867;DHT22;1441;48.886;8.728;2023-04-15T08:58:16;16.90;61.50
2867;DHT22;1441;48.886;8.728;2023-04-15T09:00:42;17.10;60.80
2867;DHT22;1441;48.886;8.728;2023-04-15T09:03:08;17.20;61.10
2867;DHT22;1441;48.886;8.728;2023-04-15T09:05:37;17.30;60.80
2867;DHT22;1441;48.886;8.728;2023-04-15T09:08:04;17.70;59.70
2867;DHT22;1441;48.886;8.728;2023-04-15T09:10:30;18.10;58.20
2867;DHT22;1441;48.886;8.728;2023-04-15T09:12:57;18.00;59.00
2867;DHT22;1441;48.886;8.728;2023-04-15T09:15:25;18.40;58.40
2867;DHT22;1441;48.886;8.728;2023-04-15T09:17:54;19.10;55.30
2867;DHT22;1441;48.886;8.728;2023-04-15T09:20:21;18.80;56.80
2867;DHT22;1441;48.886;8.728;2023-04-15T09:22:48;18.40;57.90
2867;DHT22;1441;48.886;8.728;2023-04-15T09:27:53;18.40;58.30
2867;DHT22;1441;48.886;8.728;2023-04-15T09:30:19;18.70;58.40
2867;DHT22;1441;48.886;8.728;2023-04-15T09:32:58;19.10;56.90
2867;DHT22;1441;48.886;8.728;2023-04-15T09:35:25;18.90;57.50
2867;DHT22;1441;48.886;8.728;2023-04-15T09:37:52;20.10;54.90
2867;DHT22;1441;48.886;8.728;2023-04-15T09:40:39;21.10;51.30
2867;DHT22;1441;48.886;8.728;2023-04-15T09:43:07;21.40;52.00
2867;DHT22;1441;48.886;8.728;2023-04-15T09:45:34;21.00;52.50
2867;DHT22;1441;48.886;8.728;2023-04-15T09:48:21;20.80;52.80
2867;DHT22;1441;48.886;8.728;2023-04-15T09:50:48;20.20;53.00
2867;DHT22;1441;48.886;8.728;2023-04-15T09:53:18;20.80;52.10
2867;DHT22;1441;48.886;8.728;2023-04-15T09:55:45;20.50;51.90
2867;DHT22;1441;48.886;8.728;2023-04-15T09:58:24;19.90;54.10
2867;DHT22;1441;48.886;8.728;2023-04-15T10:00:52;19.00;55.90
2867;DHT22;1441;48.886;8.728;2023-04-15T10:03:22;19.60;53.70
2867;DHT22;1441;48.886;8.728;2023-04-15T10:05:50;19.30;56.10
2867;DHT22;1441;48.886;8.728;2023-04-15T10:08:21;18.40;57.50
2867;DHT22;1441;48.886;8.728;2023-04-15T10:10:47;18.30;57.20
2867;DHT22;1441;48.886;8.728;2023-04-15T10:13:15;17.90;59.00
2867;DHT22;1441;48.886;8.728;2023-04-15T10:15:44;17.60;58.50
2867;DHT22;1441;48.886;8.728;2023-04-15T10:18:18;17.60;56.60
2867;DHT22;1441;48.886;8.728;2023-04-15T10:20:46;17.60;57.30
2867;DHT22;1441;48.886;8.728;2023-04-15T10:23:12;17.90;54.70
2867;DHT22;1441;48.886;8.728;2023-04-15T10:25:38;18.00;57.40
2867;DHT22;1441;48.886;8.728;2023-04-15T10:28:05;18.10;56.00
2867;DHT22;1441;48.886;8.728;2023-04-15T10:30:32;18.50;55.10
2867;DHT22;1441;48.886;8.728;2023-04-15T10:33:02;18.70;57.10
2867;DHT22;1441;48.886;8.728;2023-04-15T10:35:29;18.60;58.70
2867;DHT22;1441;48.886;8.728;2023-04-15T10:37:55;18.30;56.70
2867;DHT22;1441;48.886;8.728;2023-04-15T10:42:50;18.00;57.30
2867;DHT22;1441;48.886;8.728;2023-04-15T10:45:17;18.20;55.50
2867;DHT22;1441;48.886;8.728;2023-04-15T10:47:45;17.90;53.70
2867;DHT22;1441;48.886;8.728;2023-04-15T10:50:18;17.90;53.90
2867;DHT22;1441;48.886;8.728;2023-04-15T10:52:43;17.50;54.10
2867;DHT22;1441;48.886;8.728;2023-04-15T10:55:12;17.10;55.80
2867;DHT22;1441;48.886;8.728;2023-04-15T10:57:40;16.90;57.70
2867;DHT22;1441;48.886;8.728;2023-04-15T11:00:13;17.00;58.40
2867;DHT22;1441;48.886;8.728;2023-04-15T11:02:43;17.00;59.50
2867;DHT22;1441;48.886;8.728;2023-04-15T11:05:10;16.70;60.60
2867;DHT22;1441;48.886;8.728;2023-04-15T11:18:23;16.30;59.20
2867;DHT22;1441;48.886;8.728;2023-04-15T11:23:40;16.50;61.80
2867;DHT22;1441;48.886;8.728;2023-04-15T11:26:11;16.50;60.70
2867;DHT22;1441;48.886;8.728;2023-04-15T11:28:39;16.40;61.60
2867;DHT22;1441;48.886;8.728;2023-04-15T11:33:43;16.40;63.10
2867;DHT22;1441;48.886;8.728;2023-04-15T11:36:09;16.50;62.90
2867;DHT22;1441;48.886;8.728;2023-04-15T11:38:35;16.50;62.10
2867;DHT22;1441;48.886;8.728;2023-04-15T11:41:02;16.70;63.00
2867;DHT22;1441;48.886;8.728;2023-04-15T11:43:30;16.70;62.60
2867;DHT22;1441;48.886;8.728;2023-04-15T11:45:59;16.90;62.70
2867;DHT22;1441;48.886;8.728;2023-04-15T11:48:30;17.00;62.20
2867;DHT22;1441;48.886;8.728;2023-04-15T11:51:05;17.00;61.00
2867;DHT22;1441;48.886;8.728;2023-04-15T11:53:44;17.20;59.30
2867;DHT22;1441;48.886;8.728;2023-04-15T11:56:19;17.60;59.40
2867;DHT22;1441;48.886;8.728;2023-04-15T11:58:46;18.00;58.80
2867;DHT22;1441;48.886;8.728;2023-04-15T12:01:12;18.20;58.20
2867;DHT22;1441;48.886;8.728;2023-04-15T12:03:40;18.30;57.10
2867;DHT22;1441;48.886;8.728;2023-04-15T12:06:22;18.20;58.50
2867;DHT22;1441;48.886;8.728;2023-04-15T12:11:18;18.10;56.90
2867;DHT22;1441;48.886;8.728;2023-04-15T12:13:48;17.60;57.90
2867;DHT22;1441;48.886;8.728;2023-04-15T12:16:20;17.40;55.90
2867;DHT22;1441;48.886;8.728;2023-04-15T12:18:47;17.20;57.60
2867;DHT22;1441;48.886;8.728;2023-04-15T12:21:14;16.90;58.60
2867;DHT22;1441;48.886;8.728;2023-04-15T12:23:51;16.70;60.30
2867;DHT22;1441;48.886;8.728;2023-04-15T12:26:17;16.80;59.70
2867;DHT22;1441;48.886;8.728;2023-04-15T12:28:55;16.40;61.00
2867;DHT22;1441;48.886;8.728;2023-04-15T12:31:21;16.00;63.30
2867;DHT22;1441;48.886;8.728;2023-04-15T12:33:48;15.90;62.40
2867;DHT22;1441;48.886;8.728;2023-04-15T12:36:14;15.90;64.00
2867;DHT22;1441;48.886;8.728;2023-04-15T12:38:39;16.20;62.80
2867;DHT22;1441;48.886;8.728;2023-04-15T12:41:05;16.40;61.50
2867;DHT22;1441;48.886;8.728;2023-04-15T12:43:31;16.70;60.30
2867;DHT22;1441;48.886;8.728;2023-04-15T12:45:56;16.60;58.90
2867;DHT22;1441;48.886;8.728;2023-04-15T12:48:22;17.00;58.10
2867;DHT22;1441;48.886;8.728;2023-04-15T12:50:48;17.30;59.00
2867;DHT22;1441;48.886;8.728;2023-04-15T12:53:13;17.40;58.00
2867;DHT22;1441;48.886;8.728;2023-04-15T12:55:39;17.20;58.20
2867;DHT22;1441;48.886;8.728;2023-04-15T12:58:04;17.00;58.10
2867;DHT22;1441;48.886;8.728;2023-04-15T13:00:33;16.90;57.40
2867;DHT22;1441;48.886;8.728;2023-04-15T13:02:58;16.30;59.00
2867;DHT22;1441;48.886;8.728;2023-04-15T13:05:24;16.00;60.50
2867;DHT22;1441;48.886;8.728;2023-04-15T13:07:49;15.80;62.60
2867;DHT22;1441;48.886;8.728;2023-04-15T13:10:15;16.10;60.90
2867;DHT22;1441;48.886;8.728;2023-04-15T13:12:41;16.00;62.10
2867;DHT22;1441;48.886;8.728;2023-04-15T13:15:07;16.10;62.10
2867;DHT22;1441;48.886;8.728;2023-04-15T13:17:35;15.90;61.10
2867;DHT22;1441;48.886;8.728;2023-04-15T13:20:01;15.70;60.00
2867;DHT22;1441;48.886;8.728;2023-04-15T13:22:26;15.50;60.30
2867;DHT22;1441;48.886;8.728;2023-04-15T13:24:52;15.50;58.90
2867;DHT22;1441;48.886;8.728;2023-04-15T13:27:17;15.40;61.40
2867;DHT22;1441;48.886;8.728;2023-04-15T13:29:43;15.60;59.50
2867;DHT22;1441;48.886;8.728;2023-04-15T13:32:08;15.50;61.20
2867;DHT22;1441;48.886;8.728;2023-04-15T13:34:34;15.60;60.70
2867;DHT22;1441;48.886;8.728;2023-04-15T13:37:05;15.50;61.70
2867;DHT22;1441;48.886;8.728;2023-04-15T13:39:31;15.40;61.60
2867;DHT22;1441;48.886;8.728;2023-04-15T13:41:57;15.30;61.50
2867;DHT22;1441;48.886;8.728;2023-04-15T13:44:22;15.00;60.80
2867;DHT22;1441;48.886;8.728;2023-04-15T13:46:48;15.10;59.80
2867;DHT22;1441;48.886;8.728;2023-04-15T13:49:13;15.00;61.30
2867;DHT22;1441;48.886;8.728;2023-04-15T13:51:39;15.00;60.70
2867;DHT22;1441;48.886;8.728;2023-04-15T13:54:05;15.00;58.70
2867;DHT22;1441;48.886;8.728;2023-04-15T13:56:31;15.00;59.60
2867;DHT22;1441;48.886;8.728;2023-04-15T13:58:56;14.70;60.00
2867;DHT22;1441;48.886;8.728;2023-04-15T14:01:24;14.80;58.50
2867;DHT22;1441;48.886;8.728;2023-04-15T14:03:50;14.70;60.20
2867;DHT22;1441;48.886;8.728;2023-04-15T14:06:16;14.70;60.20
2867;DHT22;1441;48.886;8.728;2023-04-15T14:08:41;14.60;61.50
2867;DHT22;1441;48.886;8.728;2023-04-15T14:11:07;14.30;61.80
2867;DHT22;1441;48.886;8.728;2023-04-15T14:13:33;14.30;61.90
2867;DHT22;1441;48.886;8.728;2023-04-15T14:15:58;14.40;60.30
2867;DHT22;1441;48.886;8.728;2023-04-15T14:18:24;14.40;61.00
2867;DHT22;1441;48.886;8.728;2023-04-15T14:20:50;14.30;62.70
2867;DHT22;1441;48.886;8.728;2023-04-15T14:23:16;14.10;63.50
2867;DHT22;1441;48.886;8.728;2023-04-15T14:25:41;14.00;63.80
2867;DHT22;1441;48.886;8.728;2023-04-15T14:28:07;14.00;63.10
2867;DHT22;1441;48.886;8.728;2023-04-15T14:30:32;13.80;64.40
2867;DHT22;1441;48.886;8.728;2023-04-15T14:32:58;13.80;64.50
2867;DHT22;1441;48.886;8.728;2023-04-15T14:35:23;13.80;64.60
2867;DHT22;1441;48.886;8.728;2023-04-15T14:37:52;13.80;64.80
2867;DHT22;1441;48.886;8.728;2023-04-15T14:40:18;13.70;65.40
2867;DHT22;1441;48.886;8.728;2023-04-15T14:42:44;13.70;65.40
2867;DHT22;1441;48.886;8.728;2023-04-15T14:45:10;13.70;65.20
2867;DHT22;1441;48.886;8.728;2023-04-15T14:47:35;13.70;65.30
2867;DHT22;1441;48.886;8.728;2023-04-15T14:50:01;13.60;65.10
2867;DHT22;1441;48.886;8.728;2023-04-15T14:52:26;13.70;62.70
2867;DHT22;1441;48.886;8.728;2023-04-15T14:54:52;13.90;62.00
2867;DHT22;1441;48.886;8.728;2023-04-15T14:57:17;13.90;64.10
2867;DHT22;1441;48.886;8.728;2023-04-15T14:59:43;13.70;64.60
2867;DHT22;1441;48.886;8.728;2023-04-15T15:02:09;13.80;60.80
2867;DHT22;1441;48.886;8.728;2023-04-15T15:04:34;13.70;63.70
2867;DHT22;1441;48.886;8.728;2023-04-15T15:07:00;13.80;63.00
2867;DHT22;1441;48.886;8.728;2023-04-15T15:09:26;13.70;63.60
2867;DHT22;1441;48.886;8.728;2023-04-15T15:11:51;13.90;63.20
2867;DHT22;1441;48.886;8.728;2023-04-15T15:14:17;14.10;61.10
2867;DHT22;1441;48.886;8.728;2023-04-15T15:16:42;14.10;60.90
2867;DHT22;1441;48.886;8.728;2023-04-15T15:19:08;13.90;63.00
2867;DHT22;1441;48.886;8.728;2023-04-15T15:21:34;14.00;62.00
2867;DHT22;1441;48.886;8.728;2023-04-15T15:23:59;14.10;62.50
2867;DHT22;1441;48.886;8.728;2023-04-15T15:26:25;13.90;63.40
2867;DHT22;1441;48.886;8.728;2023-04-15T15:28:52;14.00;63.10
2867;DHT22;1441;48.886;8.728;2023-04-15T15:31:18;14.00;62.50
2867;DHT22;1441;48.886;8.728;2023-04-15T15:33:43;13.90;63.20
2867;DHT22;1441;48.886;8.728;2023-04-15T15:36:09;13.70;63.50
2867;DHT22;1441;48.886;8.728;2023-04-15T15:38:35;13.70;64.10
2867;DHT22;1441;48.886;8.728;2023-04-15T15:41:01;13.60;64.10
2867;DHT22;1441;48.886;8.728;2023-04-15T15:43:27;13.70;64.10
2867;DHT22;1441;48.886;8.728;2023-04-15T15:45:53;13.70;61.50
2867;DHT22;1441;48.886;8.728;2023-04-15T15:48:21;13.60;63.70
2867;DHT22;1441;48.886;8.728;2023-04-15T15:50:47;13.40;63.50
2867;DHT22;1441;48.886;8.728;2023-04-15T15:53:12;13.30;64.80
2867;DHT22;1441;48.886;8.728;2023-04-15T15:55:45;13.20;64.40
2867;DHT22;1441;48.886;8.728;2023-04-15T15:58:10;13.10;65.40
2867;DHT22;1441;48.886;8.728;2023-04-15T16:00:36;13.20;65.10
2867;DHT22;1441;48.886;8.728;2023-04-15T16:03:01;13.10;66.30
2867;DHT22;1441;48.886;8.728;2023-04-15T16:05:28;13.10;66.90
2867;DHT22;1441;48.886;8.728;2023-04-15T16:07:53;13.00;67.60
2867;DHT22;1441;48.886;8.728;2023-04-15T16:10:19;12.90;68.10
2867;DHT22;1441;48.886;8.728;2023-04-15T16:12:44;12.90;69.10
2867;DHT22;1441;48.886;8.728;2023-04-15T16:15:11;12.70;70.50
2867;DHT22;1441;48.886;8.728;2023-04-15T16:17:37;12.80;71.80
2867;DHT22;1441;48.886;8.728;2023-04-15T16:20:02;12.60;74.50
2867;DHT22;1441;48.886;8.728;2023-04-15T16:22:30;12.60;73.90
2867;DHT22;1441;48.886;8.728;2023-04-15T16:24:57;12.50;74.60
2867;DHT22;1441;48.886;8.728;2023-04-15T16:27:22;12.50;74.70